Time;durP1;ratioP1;P1;durP2;ratioP2;P2;SDS_P1;SDS_P2;PMS_P1;PMS_P2;Temp;Humidity;BMP_temperature;BMP_pressure;BME280_temperature;BME280_humidity;BME280_pressure;Samples;Min_cycle;Max_cycle;Signal;HPM_P1;HPM_P2
2023/04/24 00:02:17;;;;;;;1.50;1.20;;;12.90;98.00;;;;;;5032600;28;20488;-65
2023/04/24 00:04:44;;;;;;;1.40;1.10;;;12.90;98.00;;;;;;5032604;28;20489;-66
2023/04/24 00:07:12;;;;;;;1.83;1.20;;;12.90;98.00;;;;;;5031375;28;20493;-66
2023/04/24 00:09:39;;;;;;;1.70;1.30;;;12.90;98.00;;;;;;5032757;28;20463;-66
2023/04/24 00:12:07;;;;;;;1.40;1.20;;;12.90;98.00;;;;;;5033480;28;20458;-67
2023/04/24 00:14:34;;;;;;;2.80;1.30;;;12.90;98.00;;;;;;5015955;28;20560;-66
2023/04/24 00:17:11;;;;;;;1.50;1.30;;;12.70;98.00;;;;;;5032896;28;20453;-65
2023/04/24 00:19:38;;;;;;;1.57;1.30;;;12.60;98.00;;;;;;5033676;28;20458;-65
2023/04/24 00:22:06;;;;;;;1.97;1.30;;;12.60;98.00;;;;;;5032729;28;20469;-66
2023/04/24 00:24:33;;;;;;;1.40;1.20;;;12.60;98.00;;;;;;5032301;28;20552;-66
2023/04/24 00:27:00;;;;;;;1.77;1.40;;;12.70;98.00;;;;;;4998362;28;20872;-66
2023/04/24 00:29:29;;;;;;;2.13;1.50;;;12.80;98.00;;;;;;5032306;28;20552;-66
2023/04/24 00:31:56;;;;;;;2.00;1.20;;;12.80;98.00;;;;;;5032427;28;20526;-66
2023/04/24 00:34:27;;;;;;;1.40;1.10;;;12.70;98.00;;;;;;5032340;28;20465;-66
2023/04/24 00:36:54;;;;;;;1.60;1.10;;;12.70;98.00;;;;;;5032336;28;20482;-65
2023/04/24 00:39:22;;;;;;;1.30;1.23;;;12.70;98.00;;;;;;5032195;28;20451;-66
2023/04/24 00:41:50;;;;;;;1.67;1.30;;;12.60;98.00;;;;;;5032166;28;20456;-66
2023/04/24 00:44:18;;;;;;;1.60;1.20;;;12.60;98.00;;;;;;5032179;28;20511;-66
2023/04/24 00:46:45;;;;;;;1.60;1.40;;;12.60;98.00;;;;;;5032306;28;20460;-66
2023/04/24 00:49:12;;;;;;;2.73;1.40;;;12.70;98.00;;;;;;5031937;28;20548;-66
2023/04/24 00:51:45;;;;;;;1.20;1.10;;;12.80;98.00;;;;;;5031996;28;20457;-66
2023/04/24 00:54:12;;;;;;;1.50;1.20;;;12.70;98.00;;;;;;5031579;28;20457;-66
2023/04/24 00:56:40;;;;;;;1.97;1.23;;;12.70;98.00;;;;;;5031918;28;20870;-66
2023/04/24 00:59:08;;;;;;;3.67;1.40;;;12.80;98.00;;;;;;5014187;28;21041;-66
2023/04/24 01:01:36;;;;;;;1.73;1.33;;;12.90;98.00;;;;;;5014255;28;20637;-66
2023/04/24 01:04:04;;;;;;;1.97;1.20;;;12.90;98.00;;;;;;5031527;28;20914;-66
2023/04/24 01:06:31;;;;;;;2.07;1.20;;;12.90;98.00;;;;;;5031656;28;20461;-66
2023/04/24 01:09:00;;;;;;;1.87;1.43;;;13.00;98.00;;;;;;5031577;28;20519;-66
2023/04/24 01:11:27;;;;;;;1.30;1.10;;;12.90;98.00;;;;;;5031695;28;20472;-66
2023/04/24 01:13:55;;;;;;;1.30;1.20;;;12.90;98.00;;;;;;5031563;28;20465;-66
2023/04/24 01:16:22;;;;;;;1.70;1.17;;;12.90;98.00;;;;;;5031610;28;20465;-66
2023/04/24 01:18:49;;;;;;;5.10;1.23;;;12.80;98.00;;;;;;5031151;28;20453;-66
2023/04/24 01:21:17;;;;;;;1.60;1.23;;;12.80;98.00;;;;;;5031415;28;20454;-66
2023/04/24 01:23:46;;;;;;;1.53;1.20;;;12.90;98.00;;;;;;5031450;28;20496;-66
2023/04/24 01:26:14;;;;;;;1.40;1.20;;;12.90;98.00;;;;;;5031352;28;20485;-66
2023/04/24 01:28:41;;;;;;;1.50;1.10;;;13.00;98.00;;;;;;5031386;28;20462;-66
2023/04/24 01:31:08;;;;;;;1.83;1.30;;;12.90;98.00;;;;;;5031277;28;20464;-66
2023/04/24 01:33:35;;;;;;;1.20;1.13;;;12.90;98.00;;;;;;5031251;28;20465;-66
2023/04/24 01:36:07;;;;;;;1.43;1.27;;;12.90;98.00;;;;;;5031416;28;20468;-66
2023/04/24 01:38:34;;;;;;;1.20;1.10;;;13.00;98.00;;;;;;5012032;28;20461;-65
2023/04/24 01:41:03;;;;;;;1.40;1.20;;;13.00;98.00;;;;;;5031583;28;20791;-65
2023/04/24 01:43:30;;;;;;;2.53;1.07;;;12.90;98.00;;;;;;5031235;28;20454;-66
2023/04/24 01:45:57;;;;;;;1.50;1.20;;;12.90;98.00;;;;;;5031264;28;20485;-66
2023/04/24 01:48:25;;;;;;;1.60;1.30;;;12.90;98.00;;;;;;5013506;28;20981;-66
2023/04/24 01:50:52;;;;;;;4.03;1.50;;;12.90;98.00;;;;;;5031139;28;20509;-65
2023/04/24 01:53:20;;;;;;;1.67;1.30;;;12.90;98.00;;;;;;5030949;28;20978;-66
2023/04/24 01:55:48;;;;;;;1.83;1.50;;;12.90;98.00;;;;;;5031076;28;20456;-65
2023/04/24 01:58:17;;;;;;;2.07;1.17;;;12.90;98.00;;;;;;5031224;28;20878;-67
2023/04/24 02:00:44;;;;;;;1.63;1.20;;;13.00;98.00;;;;;;5013439;28;20459;-66
2023/04/24 02:03:11;;;;;;;3.30;1.40;;;12.90;98.00;;;;;;5030832;28;20466;-66
2023/04/24 02:05:38;;;;;;;1.40;1.10;;;12.90;98.00;;;;;;5031072;28;20852;-66
2023/04/24 02:08:05;;;;;;;1.53;1.33;;;12.90;98.00;;;;;;5030665;28;20477;-66
2023/04/24 02:10:32;;;;;;;1.40;1.30;;;12.90;98.00;;;;;;5031260;28;20450;-66
2023/04/24 02:13:00;;;;;;;1.90;1.20;;;12.80;98.00;;;;;;5030828;28;20466;-67
2023/04/24 02:15:30;;;;;;;1.30;1.10;;;12.80;98.00;;;;;;5030688;28;20540;-66
2023/04/24 02:17:57;;;;;;;1.30;1.13;;;12.80;98.00;;;;;;5030537;28;20469;-66
2023/04/24 02:20:25;;;;;;;1.83;1.20;;;12.80;98.00;;;;;;5030821;28;20461;-66
2023/04/24 02:22:52;;;;;;;1.20;1.10;;;12.80;98.00;;;;;;5030655;28;20459;-66
2023/04/24 02:25:19;;;;;;;1.30;1.20;;;12.80;98.00;;;;;;5030667;28;20843;-67
2023/04/24 02:27:46;;;;;;;3.30;1.10;;;12.80;98.00;;;;;;5030698;28;21010;-67
2023/04/24 02:30:14;;;;;;;1.40;1.27;;;12.70;98.00;;;;;;5030701;28;20457;-65
2023/04/24 02:32:42;;;;;;;1.60;1.10;;;12.70;98.00;;;;;;5034584;28;20462;-67
2023/04/24 02:35:10;;;;;;;1.53;1.13;;;12.80;98.00;;;;;;5016954;28;20528;-66
2023/04/24 02:37:37;;;;;;;1.20;1.10;;;12.80;98.00;;;;;;5034497;28;20453;-66
2023/04/24 02:40:05;;;;;;;1.30;1.10;;;12.80;98.00;;;;;;5016865;28;20461;-67
2023/04/24 02:42:32;;;;;;;1.20;1.00;;;12.90;98.00;;;;;;5034243;28;20519;-67
2023/04/24 02:45:00;;;;;;;1.20;1.10;;;12.90;98.00;;;;;;5034099;28;21075;-67
2023/04/24 02:47:27;;;;;;;2.13;1.30;;;13.00;98.00;;;;;;5034137;28;20457;-66
2023/04/24 02:49:56;;;;;;;2.23;1.20;;;12.90;98.00;;;;;;5034251;28;20465;-67
2023/04/24 02:52:23;;;;;;;1.37;1.10;;;12.90;98.00;;;;;;5034347;28;20457;-66
2023/04/24 02:54:53;;;;;;;1.43;1.20;;;12.90;98.00;;;;;;5034162;28;20461;-66
2023/04/24 02:57:20;;;;;;;1.40;1.10;;;12.90;98.00;;;;;;5033946;28;20469;-67
2023/04/24 02:59:47;;;;;;;1.40;1.03;;;12.90;98.00;;;;;;5033973;28;20449;-67
2023/04/24 03:02:14;;;;;;;1.87;1.40;;;12.80;98.00;;;;;;5033813;28;20457;-66
2023/04/24 03:04:42;;;;;;;1.70;1.37;;;12.70;98.00;;;;;;5033863;28;20489;-67
2023/04/24 03:07:11;;;;;;;1.40;1.10;;;12.70;98.00;;;;;;5033779;28;20476;-67
2023/04/24 03:09:38;;;;;;;1.30;1.10;;;12.70;98.00;;;;;;5033624;28;20463;-67
2023/04/24 03:12:05;;;;;;;1.20;1.00;;;12.60;98.00;;;;;;5033780;28;20459;-67
2023/04/24 03:14:32;;;;;;;1.80;1.20;;;12.60;98.00;;;;;;5015849;28;20890;-66
2023/04/24 03:16:59;;;;;;;1.30;1.10;;;12.50;98.00;;;;;;5016228;28;20453;-66
2023/04/24 03:19:26;;;;;;;1.40;1.10;;;12.50;98.00;;;;;;5033588;28;20527;-67
2023/04/24 03:21:53;;;;;;;1.30;1.00;;;12.40;98.00;;;;;;5033649;28;20472;-66
2023/04/24 03:24:22;;;;;;;1.63;1.20;;;12.40;98.00;;;;;;5033490;28;20462;-67
2023/04/24 03:26:49;;;;;;;1.43;1.30;;;12.40;98.00;;;;;;5033649;28;20500;-66
2023/04/24 03:29:16;;;;;;;1.50;1.23;;;12.40;98.00;;;;;;5033458;28;20466;-67
2023/04/24 03:31:44;;;;;;;1.30;1.10;;;12.50;98.00;;;;;;5016149;28;20578;-66
2023/04/24 03:34:11;;;;;;;1.60;1.20;;;12.50;98.00;;;;;;5033270;28;20462;-66
2023/04/24 03:36:38;;;;;;;1.50;1.20;;;12.50;98.00;;;;;;5033388;28;20796;-66
2023/04/24 03:39:05;;;;;;;1.43;1.10;;;12.40;98.00;;;;;;5033385;28;20465;-67
2023/04/24 03:41:35;;;;;;;1.20;1.10;;;12.50;98.00;;;;;;5032994;28;20453;-66
2023/04/24 03:44:02;;;;;;;2.07;1.10;;;12.40;98.00;;;;;;5032980;28;20464;-66
2023/04/24 03:46:29;;;;;;;1.30;1.07;;;12.40;98.00;;;;;;5033110;28;20493;-67
2023/04/24 03:48:56;;;;;;;1.30;1.10;;;12.40;98.00;;;;;;5033132;28;20484;-66
2023/04/24 03:51:24;;;;;;;1.20;1.13;;;12.40;98.00;;;;;;5033012;28;20469;-66
2023/04/24 03:53:51;;;;;;;1.90;1.20;;;12.40;98.00;;;;;;5014807;28;20451;-66
2023/04/24 03:56:18;;;;;;;2.67;1.17;;;12.40;98.00;;;;;;5032855;28;20448;-66
2023/04/24 03:58:46;;;;;;;1.50;1.10;;;12.40;98.00;;;;;;5032688;28;20503;-66
2023/04/24 04:01:15;;;;;;;1.30;1.10;;;12.40;98.00;;;;;;5032890;28;20472;-66
2023/04/24 04:03:42;;;;;;;1.60;1.30;;;12.40;98.00;;;;;;5032708;28;20484;-66
2023/04/24 04:06:11;;;;;;;2.90;1.23;;;12.40;98.00;;;;;;5032604;28;20488;-66
2023/04/24 04:08:38;;;;;;;1.30;1.17;;;12.20;98.00;;;;;;5032478;28;20638;-67
2023/04/24 04:11:05;;;;;;;1.30;1.10;;;12.10;98.00;;;;;;5014801;28;21087;-66
2023/04/24 04:13:33;;;;;;;1.50;1.33;;;12.10;98.00;;;;;;5015229;28;20825;-66
2023/04/24 04:16:02;;;;;;;1.40;1.17;;;12.10;98.00;;;;;;5032628;28;20470;-66
2023/04/24 04:18:29;;;;;;;1.60;1.00;;;12.20;98.00;;;;;;5032519;28;20472;-65
2023/04/24 04:20:56;;;;;;;1.20;1.07;;;12.20;98.00;;;;;;5032633;28;20488;-66
2023/04/24 04:23:23;;;;;;;1.30;1.20;;;12.20;98.00;;;;;;5015085;28;20556;-66
2023/04/24 04:25:51;;;;;;;2.43;1.10;;;12.30;98.00;;;;;;5032436;28;20558;-66
2023/04/24 04:28:19;;;;;;;1.67;1.30;;;12.20;98.00;;;;;;5032165;28;20468;-66
2023/04/24 04:30:46;;;;;;;1.80;1.17;;;12.20;98.00;;;;;;5032345;28;20478;-66
2023/04/24 04:33:16;;;;;;;1.57;1.10;;;12.20;98.00;;;;;;5032184;28;20987;-66
2023/04/24 04:35:48;;;;;;;1.20;1.00;;;12.10;98.00;;;;;;5032213;28;20459;-66
2023/04/24 04:38:16;;;;;;;2.17;1.37;;;12.20;98.00;;;;;;5031783;28;20473;-66
2023/04/24 04:40:44;;;;;;;1.87;1.20;;;12.20;98.00;;;;;;5031936;28;20451;-65
2023/04/24 04:43:13;;;;;;;1.23;1.10;;;12.20;98.00;;;;;;5031930;28;20481;-67
2023/04/24 04:45:41;;;;;;;1.50;1.30;;;12.20;98.00;;;;;;5031989;28;20951;-66
2023/04/24 04:48:08;;;;;;;1.40;1.20;;;12.20;98.00;;;;;;5031845;28;20460;-66
2023/04/24 04:50:37;;;;;;;1.27;1.20;;;12.10;98.00;;;;;;5031923;28;20902;-66
2023/04/24 04:53:05;;;;;;;3.00;1.40;;;12.00;98.00;;;;;;5031227;28;20461;-66
2023/04/24 04:55:32;;;;;;;2.03;1.10;;;12.00;98.00;;;;;;5031899;28;20462;-66
2023/04/24 04:58:00;;;;;;;2.33;1.40;;;12.00;98.00;;;;;;5031685;28;20456;-66
2023/04/24 05:00:28;;;;;;;3.47;1.57;;;12.00;98.00;;;;;;5031688;28;20465;-66
2023/04/24 05:02:56;;;;;;;1.77;1.40;;;11.60;98.00;;;;;;5031687;28;21000;-67
2023/04/24 05:05:23;;;;;;;1.50;1.20;;;11.40;98.00;;;;;;5031519;28;20580;-66
2023/04/24 05:07:51;;;;;;;1.73;1.30;;;11.20;98.00;;;;;;5031392;28;20475;-65
2023/04/24 05:10:19;;;;;;;1.97;1.50;;;11.10;98.00;;;;;;5031605;28;20463;-66
2023/04/24 05:12:46;;;;;;;1.47;1.20;;;11.00;98.00;;;;;;5014036;28;20446;-66
2023/04/24 05:15:13;;;;;;;1.87;1.20;;;10.90;98.00;;;;;;5031632;28;20474;-67
2023/04/24 05:17:40;;;;;;;1.60;1.30;;;10.90;98.00;;;;;;5031697;28;20969;-66
2023/04/24 05:20:09;;;;;;;1.93;1.37;;;11.00;98.00;;;;;;5014070;28;20462;-66
2023/04/24 05:22:36;;;;;;;2.43;1.60;;;11.00;98.00;;;;;;5014257;28;20454;-66
2023/04/24 05:25:05;;;;;;;1.67;1.17;;;11.00;98.00;;;;;;5031394;28;20486;-66
2023/04/24 05:27:33;;;;;;;4.20;1.43;;;11.10;98.00;;;;;;5031413;28;20479;-66
2023/04/24 05:30:00;;;;;;;1.50;1.40;;;11.10;98.00;;;;;;5013411;28;20448;-66
2023/04/24 05:32:28;;;;;;;1.60;1.20;;;11.10;98.00;;;;;;5013807;28;20464;-65
2023/04/24 05:34:55;;;;;;;1.80;1.30;;;11.10;98.00;;;;;;5013969;28;20460;-66
2023/04/24 05:37:22;;;;;;;1.40;1.10;;;11.00;98.00;;;;;;5031216;28;20506;-67
2023/04/24 05:39:49;;;;;;;1.87;1.27;;;11.00;98.00;;;;;;5031119;28;20463;-66
2023/04/24 05:42:18;;;;;;;1.93;1.40;;;11.00;98.00;;;;;;5013701;28;20981;-66
2023/04/24 05:44:45;;;;;;;2.03;1.30;;;11.10;98.00;;;;;;5031261;28;20516;-66
2023/04/24 05:47:13;;;;;;;1.50;1.40;;;11.10;98.00;;;;;;5031015;28;20483;-65
2023/04/24 05:49:40;;;;;;;1.90;1.27;;;11.10;98.00;;;;;;5031140;28;20544;-67
2023/04/24 05:52:08;;;;;;;1.40;1.23;;;11.10;98.00;;;;;;5031092;28;20596;-66
2023/04/24 05:54:38;;;;;;;1.30;1.10;;;11.10;98.00;;;;;;5031119;28;20538;-65
2023/04/24 05:57:07;;;;;;;1.30;1.20;;;11.10;98.00;;;;;;5013768;28;20462;-65
2023/04/24 05:59:37;;;;;;;1.60;1.30;;;11.00;98.00;;;;;;5031090;28;20466;-66
2023/04/24 06:02:05;;;;;;;1.43;1.37;;;10.90;98.00;;;;;;5031166;28;20859;-63
2023/04/24 06:04:33;;;;;;;1.80;1.33;;;10.90;98.00;;;;;;5031526;28;20951;-62
2023/04/24 06:07:00;;;;;;;1.60;1.40;;;10.90;98.00;;;;;;5034876;28;20493;-63
2023/04/24 06:09:27;;;;;;;1.53;1.30;;;11.00;98.00;;;;;;5001328;28;20474;-63
2023/04/24 06:11:54;;;;;;;1.40;1.20;;;10.90;98.00;;;;;;5035157;28;20456;-63
2023/04/24 06:14:22;;;;;;;2.70;1.50;;;10.90;98.00;;;;;;5035633;28;20462;-62
2023/04/24 06:16:50;;;;;;;2.00;1.50;;;10.90;98.00;;;;;;5035649;28;20553;-63
2023/04/24 06:19:18;;;;;;;1.60;1.40;;;10.90;98.00;;;;;;5035254;28;20492;-63
2023/04/24 06:21:45;;;;;;;1.80;1.30;;;10.90;98.00;;;;;;5035388;28;20466;-62
2023/04/24 06:24:12;;;;;;;1.30;1.20;;;10.90;98.00;;;;;;5035213;28;20459;-62
2023/04/24 06:26:40;;;;;;;1.57;1.40;;;11.00;98.00;;;;;;5034968;28;20855;-63
2023/04/24 06:29:10;;;;;;;3.00;1.60;;;11.10;98.00;;;;;;5035114;28;20468;-63
2023/04/24 06:31:37;;;;;;;1.83;1.40;;;11.10;98.00;;;;;;5035239;28;20472;-62
2023/04/24 06:34:06;;;;;;;1.30;1.13;;;11.00;98.00;;;;;;5035196;28;20553;-62
2023/04/24 06:36:34;;;;;;;1.50;1.30;;;11.00;98.00;;;;;;5035167;28;20460;-62
2023/04/24 06:39:01;;;;;;;2.17;1.50;;;11.00;98.00;;;;;;5034797;28;20867;-62
2023/04/24 06:41:29;;;;;;;1.93;1.50;;;11.00;98.00;;;;;;5034354;28;20455;-63
2023/04/24 06:43:56;;;;;;;2.77;1.30;;;11.00;98.00;;;;;;5034341;28;20488;-62
2023/04/24 06:46:25;;;;;;;6.90;3.00;;;11.10;98.00;;;;;;5034279;28;20481;-63
2023/04/24 06:48:55;;;;;;;2.30;1.53;;;11.30;98.00;;;;;;5034713;28;20468;-62
2023/04/24 06:51:26;;;;;;;1.50;1.30;;;11.40;98.00;;;;;;5035054;28;20454;-62
2023/04/24 06:53:55;;;;;;;1.77;1.20;;;11.40;98.00;;;;;;5034870;28;20497;-63
2023/04/24 06:56:23;;;;;;;1.47;1.30;;;11.40;98.00;;;;;;5034899;28;20516;-64
2023/04/24 06:58:50;;;;;;;1.87;1.40;;;11.70;98.00;;;;;;5034586;28;20463;-64
2023/04/24 07:01:17;;;;;;;2.33;1.57;;;11.70;98.00;;;;;;5034896;28;21024;-63
2023/04/24 07:03:44;;;;;;;1.43;1.30;;;11.60;98.00;;;;;;5034647;28;20805;-64
2023/04/24 07:06:12;;;;;;;3.03;1.53;;;11.80;98.00;;;;;;5034854;28;20901;-63
2023/04/24 07:08:41;;;;;;;1.50;1.30;;;11.90;98.00;;;;;;5034382;28;20465;-63
2023/04/24 07:11:08;;;;;;;2.20;1.60;;;12.00;98.00;;;;;;5017251;28;21206;-63
2023/04/24 07:13:36;;;;;;;1.97;1.50;;;12.10;98.00;;;;;;5016642;28;20450;-63
2023/04/24 07:16:09;;;;;;;2.40;1.70;;;12.20;98.00;;;;;;5031916;28;20493;-63
2023/04/24 07:18:38;;;;;;;3.37;1.63;;;12.40;98.00;;;;;;5033874;28;20472;-63
2023/04/24 07:21:06;;;;;;;1.83;1.50;;;12.60;98.00;;;;;;5033858;28;20463;-64
2023/04/24 07:23:33;;;;;;;2.43;1.70;;;12.60;98.00;;;;;;5016162;28;20461;-64
2023/04/24 07:26:01;;;;;;;1.87;1.50;;;12.80;98.00;;;;;;5033554;28;20493;-64
2023/04/24 07:28:30;;;;;;;2.33;1.70;;;12.80;98.00;;;;;;5033627;28;20494;-64
2023/04/24 07:30:59;;;;;;;1.93;1.90;;;12.90;98.00;;;;;;5032560;28;20455;-63
2023/04/24 07:33:26;;;;;;;1.30;1.30;;;12.80;98.00;;;;;;5033555;28;21143;-62
2023/04/24 07:35:54;;;;;;;2.30;1.67;;;12.90;98.00;;;;;;5033260;28;20487;-63
2023/04/24 07:38:25;;;;;;;2.27;1.67;;;12.90;98.00;;;;;;5033101;28;20461;-63
2023/04/24 07:40:52;;;;;;;2.13;1.60;;;12.90;98.00;;;;;;5033210;28;20470;-62
2023/04/24 07:43:23;;;;;;;3.37;1.73;;;13.00;98.00;;;;;;5033063;28;20473;-63
2023/04/24 07:45:50;;;;;;;1.70;1.23;;;12.90;98.00;;;;;;5014437;28;20493;-63
2023/04/24 07:48:19;;;;;;;2.93;1.53;;;13.00;98.00;;;;;;5032786;28;20460;-63
2023/04/24 07:50:46;;;;;;;1.67;1.40;;;13.00;98.00;;;;;;5033008;28;20469;-63
2023/04/24 07:53:13;;;;;;;2.43;1.63;;;12.90;98.00;;;;;;5032854;28;20465;-63
2023/04/24 07:55:40;;;;;;;2.33;1.57;;;13.00;98.00;;;;;;5032266;28;20760;-63
2023/04/24 07:58:07;;;;;;;2.57;1.50;;;12.80;98.00;;;;;;4998928;28;20458;-62
2023/04/24 08:00:35;;;;;;;2.27;1.60;;;12.70;98.00;;;;;;5033014;28;20871;-62
2023/04/24 08:03:03;;;;;;;1.57;1.47;;;12.60;98.00;;;;;;5032720;28;20453;-63
2023/04/24 08:05:30;;;;;;;1.50;1.33;;;12.50;98.00;;;;;;5032974;28;20467;-63
2023/04/24 08:07:57;;;;;;;2.23;1.50;;;12.50;98.00;;;;;;5032337;28;20998;-62
2023/04/24 08:10:27;;;;;;;2.27;1.60;;;12.50;98.00;;;;;;5032618;28;20863;-63
2023/04/24 08:12:55;;;;;;;2.93;1.50;;;12.50;98.00;;;;;;5032816;28;20555;-64
2023/04/24 08:15:22;;;;;;;1.80;1.37;;;12.70;98.00;;;;;;5015227;28;20461;-63
2023/04/24 08:17:51;;;;;;;2.33;1.50;;;13.00;98.00;;;;;;5032478;28;20877;-62
2023/04/24 08:20:18;;;;;;;1.60;1.43;;;13.30;98.00;;;;;;5032511;28;20452;-63
2023/04/24 08:22:48;;;;;;;1.90;1.40;;;13.70;98.00;;;;;;5032094;28;20514;-63
2023/04/24 08:25:15;;;;;;;2.90;1.60;;;13.70;98.00;;;;;;5032138;28;20493;-63
2023/04/24 08:27:43;;;;;;;2.50;1.70;;;13.50;98.00;;;;;;5031669;28;20490;-63
2023/04/24 08:30:11;;;;;;;2.00;1.70;;;13.40;98.00;;;;;;5031758;28;20583;-62
2023/04/24 08:32:39;;;;;;;1.63;1.30;;;13.20;98.00;;;;;;5014899;28;20842;-63
2023/04/24 08:35:09;;;;;;;10.50;1.60;;;13.10;98.00;;;;;;5014664;28;20466;-64
2023/04/24 08:37:36;;;;;;;1.90;1.80;;;12.90;98.00;;;;;;5032095;28;20460;-63
2023/04/24 08:40:14;;;;;;;1.30;1.20;;;12.80;98.00;;;;;;5031771;28;20506;-63
2023/04/24 08:42:42;;;;;;;4.80;1.40;;;12.80;98.00;;;;;;5032058;28;20499;-63
2023/04/24 08:45:11;;;;;;;1.60;1.50;;;12.70;98.00;;;;;;5031891;28;20543;-62
2023/04/24 08:47:40;;;;;;;1.70;1.40;;;12.60;98.00;;;;;;5036763;28;20941;-63
2023/04/24 08:50:12;;;;;;;2.03;1.43;;;12.50;98.00;;;;;;5031811;28;20808;-62
2023/04/24 08:52:39;;;;;;;1.97;1.50;;;12.60;98.00;;;;;;5031596;28;20504;-62
2023/04/24 08:55:07;;;;;;;3.00;1.70;;;12.60;98.00;;;;;;5031565;28;20455;-62
2023/04/24 08:57:35;;;;;;;2.20;1.53;;;12.80;98.00;;;;;;5013994;28;20512;-62
2023/04/24 09:00:04;;;;;;;1.40;1.30;;;13.20;98.00;;;;;;5030530;28;20457;-63
2023/04/24 09:02:34;;;;;;;2.20;1.40;;;13.70;98.00;;;;;;5032052;28;20516;-63
2023/04/24 09:05:02;;;;;;;1.70;1.43;;;14.00;98.00;;;;;;5031577;28;20459;-64
2023/04/24 09:07:34;;;;;;;1.83;1.50;;;14.20;98.00;;;;;;5030258;28;20510;-63
2023/04/24 09:10:04;;;;;;;2.57;1.70;;;14.20;98.00;;;;;;5031295;28;20455;-64
2023/04/24 09:12:31;;;;;;;1.93;1.57;;;14.40;98.00;;;;;;5032016;28;20806;-63
2023/04/24 09:14:59;;;;;;;1.80;1.40;;;14.30;98.00;;;;;;5031362;28;20563;-62
2023/04/24 09:17:28;;;;;;;1.87;1.50;;;14.20;98.00;;;;;;5031438;28;20453;-63
2023/04/24 09:19:56;;;;;;;1.60;1.30;;;14.10;98.00;;;;;;5030118;28;20965;-63
2023/04/24 09:22:23;;;;;;;1.60;1.30;;;13.90;98.00;;;;;;5031304;28;20468;-63
2023/04/24 09:25:02;;;;;;;6.77;1.53;;;13.60;98.00;;;;;;5031169;28;20468;-63
2023/04/24 09:27:30;;;;;;;2.17;1.60;;;13.50;98.00;;;;;;5031300;28;20854;-63
2023/04/24 09:29:58;;;;;;;1.80;1.30;;;13.30;98.00;;;;;;5029847;28;20959;-63
2023/04/24 09:32:27;;;;;;;2.33;1.50;;;13.30;98.00;;;;;;5030925;28;20469;-62
2023/04/24 09:35:08;;;;;;;1.47;1.37;;;13.30;98.00;;;;;;5030967;28;20457;-62
2023/04/24 09:37:41;;;;;;;4.07;1.90;;;13.30;98.00;;;;;;5031246;28;20539;-62
2023/04/24 09:40:15;;;;;;;1.63;1.40;;;13.20;98.00;;;;;;5030816;28;20612;-63
2023/04/24 09:42:47;;;;;;;1.53;1.40;;;12.90;98.00;;;;;;5029803;28;20780;-63
2023/04/24 09:45:14;;;;;;;1.73;1.43;;;12.60;98.00;;;;;;5030695;28;20822;-62
2023/04/24 09:47:42;;;;;;;1.50;1.50;;;12.40;98.00;;;;;;5031093;28;21011;-62
2023/04/24 09:50:16;;;;;;;1.97;1.40;;;12.40;98.00;;;;;;5030893;28;20451;-64
2023/04/24 09:52:45;;;;;;;7.73;1.80;;;12.10;98.00;;;;;;5030899;28;20454;-62
2023/04/24 09:55:17;;;;;;;2.80;1.90;;;12.00;98.00;;;;;;5030791;28;20871;-64
2023/04/24 09:57:52;;;;;;;3.00;1.77;;;12.00;98.00;;;;;;5031136;28;20508;-63
2023/04/24 10:00:22;;;;;;;2.77;1.50;;;12.10;98.00;;;;;;5013852;28;20800;-63
2023/04/24 10:02:55;;;;;;;4.93;1.60;;;12.30;98.00;;;;;;5031001;28;20462;-62
2023/04/24 10:05:26;;;;;;;1.70;1.47;;;12.50;98.00;;;;;;5030394;28;20464;-63
2023/04/24 10:07:57;;;;;;;1.70;1.50;;;13.00;98.00;;;;;;5030612;28;20529;-63
2023/04/24 10:10:26;;;;;;;1.93;1.50;;;13.60;98.00;;;;;;5030628;28;20495;-63
2023/04/24 10:12:54;;;;;;;1.70;1.40;;;14.10;98.00;;;;;;5030853;28;20480;-63
2023/04/24 10:15:22;;;;;;;2.90;1.60;;;14.30;98.00;;;;;;5030695;28;20491;-63
2023/04/24 10:17:53;;;;;;;1.53;1.40;;;14.50;98.00;;;;;;5030937;28;20462;-62
2023/04/24 10:20:22;;;;;;;3.60;1.80;;;14.70;98.00;;;;;;5030640;28;20485;-62
2023/04/24 10:22:51;;;;;;;1.60;1.60;;;14.80;98.00;;;;;;5030658;28;21034;-64
2023/04/24 10:25:21;;;;;;;2.00;1.50;;;14.40;98.00;;;;;;5030548;28;20457;-63
2023/04/24 10:27:51;;;;;;;2.83;1.53;;;14.10;98.00;;;;;;5030482;28;20529;-63
2023/04/24 10:30:19;;;;;;;2.30;1.70;;;13.70;98.00;;;;;;5030311;28;20456;-62
2023/04/24 10:32:47;;;;;;;1.90;1.40;;;13.50;98.00;;;;;;5013157;28;20502;-62
2023/04/24 10:35:16;;;;;;;2.93;1.90;;;13.20;98.00;;;;;;5030549;28;20941;-63
2023/04/24 10:37:46;;;;;;;1.87;1.40;;;13.00;98.00;;;;;;5030403;28;20964;-63
2023/04/24 10:40:18;;;;;;;2.10;1.40;;;13.00;98.00;;;;;;5030521;28;20462;-62
2023/04/24 10:42:53;;;;;;;2.43;1.63;;;13.00;98.00;;;;;;5030572;28;20551;-63
2023/04/24 10:45:21;;;;;;;1.93;1.43;;;13.00;98.00;;;;;;5030862;28;21077;-62
2023/04/24 10:48:00;;;;;;;3.53;1.63;;;13.20;98.00;;;;;;5031262;28;20484;-63
2023/04/24 10:50:31;;;;;;;1.97;1.40;;;13.50;98.00;;;;;;5031439;28;20489;-63
2023/04/24 10:53:07;;;;;;;1.63;1.47;;;13.90;98.00;;;;;;5034438;28;21017;-62
2023/04/24 10:55:50;;;;;;;1.73;1.50;;;14.40;98.00;;;;;;5034806;28;20460;-63
2023/04/24 10:58:22;;;;;;;1.70;1.33;;;14.80;96.40;;;;;;5034611;28;20560;-62
2023/04/24 11:00:57;;;;;;;1.77;1.30;;;15.00;94.90;;;;;;5034747;28;20505;-62
2023/04/24 11:03:27;;;;;;;1.40;1.40;;;14.70;94.20;;;;;;5034414;28;20489;-63
2023/04/24 11:05:59;;;;;;;1.67;1.47;;;14.30;94.20;;;;;;5034258;28;20497;-62
2023/04/24 11:08:31;;;;;;;2.50;1.60;;;14.10;96.80;;;;;;5034173;28;20964;-63
2023/04/24 11:11:04;;;;;;;1.97;1.50;;;14.00;96.20;;;;;;5034282;28;20469;-62
2023/04/24 11:14:09;;;;;;;2.77;1.70;;;13.70;95.70;;;;;;5034442;28;20459;-62
2023/04/24 11:16:45;;;;;;;1.97;1.50;;;13.50;98.00;;;;;;5033831;28;20465;-62
2023/04/24 11:19:23;;;;;;;1.60;1.30;;;13.30;97.10;;;;;;5032355;28;20559;-63
2023/04/24 11:21:56;;;;;;;2.13;1.30;;;13.30;98.00;;;;;;5033901;28;20455;-62
2023/04/24 11:24:31;;;;;;;2.57;1.90;;;13.30;98.00;;;;;;5034152;28;20471;-62
2023/04/24 11:27:01;;;;;;;1.77;1.40;;;13.30;98.00;;;;;;5034179;28;20491;-62
2023/04/24 11:30:01;;;;;;;1.97;1.33;;;13.20;98.00;;;;;;5033879;28;20495;-64
2023/04/24 11:32:30;;;;;;;2.80;1.40;;;13.10;98.00;;;;;;5034045;28;20485;-62
2023/04/24 11:34:58;;;;;;;1.63;1.30;;;13.10;98.00;;;;;;5016693;28;20464;-63
2023/04/24 11:37:28;;;;;;;2.90;1.60;;;13.10;98.00;;;;;;5034078;28;20463;-63
2023/04/24 11:39:56;;;;;;;1.70;1.40;;;13.00;98.00;;;;;;5034122;28;20464;-63
2023/04/24 11:42:25;;;;;;;1.73;1.50;;;13.00;98.00;;;;;;5034171;28;20467;-63
2023/04/24 11:44:56;;;;;;;1.60;1.20;;;12.90;98.00;;;;;;5034104;28;20457;-62
2023/04/24 11:47:37;;;;;;;1.70;1.20;;;12.90;98.00;;;;;;5034125;28;20573;-64
2023/04/24 11:50:06;;;;;;;2.10;1.67;;;12.80;98.00;;;;;;5017505;28;20463;-63
2023/04/24 11:52:34;;;;;;;2.23;1.63;;;12.80;98.00;;;;;;5016715;28;20465;-63
2023/04/24 11:55:01;;;;;;;2.50;1.40;;;12.70;98.00;;;;;;5033601;28;20522;-62
2023/04/24 11:57:33;;;;;;;1.60;1.40;;;12.60;98.00;;;;;;5033863;28;20523;-62
2023/04/24 12:00:02;;;;;;;3.20;1.40;;;12.60;98.00;;;;;;5033489;28;20956;-63
2023/04/24 12:02:29;;;;;;;2.37;1.50;;;12.80;98.00;;;;;;5033331;28;20467;-63
2023/04/24 12:04:56;;;;;;;1.60;1.50;;;13.20;98.00;;;;;;5033496;28;20507;-63
2023/04/24 12:07:24;;;;;;;2.63;1.60;;;13.30;98.00;;;;;;5032557;28;20497;-63
2023/04/24 12:09:57;;;;;;;1.77;1.50;;;13.50;98.00;;;;;;5032752;28;21058;-63
2023/04/24 12:12:27;;;;;;;1.90;1.50;;;13.70;98.00;;;;;;5032816;28;20494;-63
2023/04/24 12:14:55;;;;;;;1.57;1.50;;;13.80;98.00;;;;;;5032688;28;20534;-63
2023/04/24 12:17:28;;;;;;;2.00;1.53;;;13.70;98.00;;;;;;5032642;28;20467;-62
2023/04/24 12:20:00;;;;;;;2.43;1.50;;;13.60;98.00;;;;;;5032713;28;20883;-62
2023/04/24 12:22:28;;;;;;;1.50;1.20;;;13.30;98.00;;;;;;5032746;28;20627;-63
2023/04/24 12:25:01;;;;;;;4.03;1.60;;;13.30;98.00;;;;;;5032458;28;20459;-62
2023/04/24 12:27:33;;;;;;;1.50;1.27;;;13.10;98.00;;;;;;5032463;28;20520;-63
2023/04/24 12:30:01;;;;;;;1.60;1.40;;;12.90;98.00;;;;;;5014441;28;20466;-62
2023/04/24 12:32:30;;;;;;;2.03;1.43;;;12.80;98.00;;;;;;5032528;28;20474;-62
2023/04/24 12:34:57;;;;;;;2.07;1.40;;;12.90;98.00;;;;;;5014610;28;20864;-63
2023/04/24 12:37:25;;;;;;;1.60;1.40;;;13.50;98.00;;;;;;5032231;28;20459;-63
2023/04/24 12:40:03;;;;;;;1.40;1.40;;;14.10;98.00;;;;;;5032213;28;20548;-64
2023/04/24 12:42:31;;;;;;;2.07;1.40;;;14.70;98.00;;;;;;5032297;28;20676;-63
2023/04/24 12:45:00;;;;;;;2.70;1.63;;;14.90;98.00;;;;;;5032032;28;20511;-62
2023/04/24 12:47:29;;;;;;;2.43;1.50;;;14.90;98.00;;;;;;5031765;28;20486;-63
2023/04/24 12:49:56;;;;;;;2.27;1.70;;;14.70;96.90;;;;;;5030833;28;20459;-62
2023/04/24 12:52:25;;;;;;;2.10;1.70;;;14.40;97.90;;;;;;5032116;28;20515;-62
2023/04/24 12:54:54;;;;;;;1.50;1.30;;;14.10;98.00;;;;;;5032120;28;20488;-63
2023/04/24 12:57:21;;;;;;;3.10;1.67;;;13.80;98.00;;;;;;5032195;28;20587;-62